Time;durP1;ratioP1;P1;durP2;ratioP2;P2;SDS_P1;SDS_P2;PMS_P1;PMS_P2;Temp;Humidity;BMP_temperature;BMP_pressure;BME280_temperature;BME280_humidity;BME280_pressure;Samples;Min_cycle;Max_cycle;Signal;HPM_P1;HPM_P2
2023/06/17 00:00:13;;;;;;;7.43;6.47;;;;;;;17.26;100.00;98994.34;5028656;28;20198;-77
2023/06/17 00:02:41;;;;;;;10.77;7.13;;;;;;;17.45;100.00;98986.25;5025379;28;20209;-77
2023/06/17 00:05:10;;;;;;;8.57;6.87;;;;;;;17.23;100.00;98991.13;5028524;28;20204;-76
2023/06/17 00:07:41;;;;;;;7.97;6.90;;;;;;;17.32;100.00;98990.25;5025315;28;20285;-77
2023/06/17 00:10:10;;;;;;;7.97;6.63;;;;;;;17.28;100.00;98997.75;5027294;28;20635;-76
2023/06/17 00:12:39;;;;;;;7.50;6.30;;;;;;;17.06;100.00;98993.53;5044219;27;20201;-77
2023/06/17 00:15:12;;;;;;;7.80;6.97;;;;;;;17.19;100.00;98985.22;5132707;27;20202;-77
2023/06/17 00:17:44;;;;;;;9.13;6.20;;;;;;;17.20;100.00;98984.22;5125445;27;20653;-76
2023/06/17 00:20:14;;;;;;;9.43;6.90;;;;;;;17.09;100.00;98977.22;5128917;27;20199;-76
2023/06/17 00:22:44;;;;;;;8.47;6.93;;;;;;;17.09;100.00;98977.22;5125547;27;20198;-76
2023/06/17 00:25:14;;;;;;;8.03;7.07;;;;;;;17.18;100.00;98983.53;5132479;27;20198;-76
2023/06/17 00:27:43;;;;;;;8.47;7.10;;;;;;;17.02;100.00;98980.59;5124878;27;20214;-76
2023/06/17 00:30:14;;;;;;;9.17;7.47;;;;;;;16.99;100.00;98979.06;5128217;27;20383;-76
2023/06/17 00:32:42;;;;;;;8.80;6.70;;;;;;;16.97;100.00;98975.66;5130781;27;20633;-76
2023/06/17 00:35:11;;;;;;;8.20;6.47;;;;;;;16.91;100.00;98970.91;5126903;27;20202;-77
2023/06/17 00:37:39;;;;;;;7.67;6.87;;;;;;;17.02;100.00;98977.94;5118342;27;20218;-76
2023/06/17 00:40:09;;;;;;;8.30;7.17;;;;;;;16.71;100.00;98978.09;5127940;27;20694;-77
2023/06/17 00:42:39;;;;;;;7.67;6.77;;;;;;;16.75;100.00;98976.81;5123882;27;20202;-76
2023/06/17 00:45:09;;;;;;;9.53;6.90;;;;;;;16.89;100.00;98980.91;5126947;27;20229;-76
2023/06/17 00:47:40;;;;;;;8.97;6.97;;;;;;;16.47;100.00;98980.31;5124189;27;20282;-76
2023/06/17 00:50:12;;;;;;;7.60;6.80;;;;;;;16.32;100.00;98977.22;5123891;27;20226;-76
2023/06/17 00:52:45;;;;;;;8.03;6.33;;;;;;;16.33;100.00;98972.72;5130661;27;20649;-77
2023/06/17 00:55:14;;;;;;;9.47;6.50;;;;;;;16.26;100.00;98970.59;5135244;27;20195;-76
2023/06/17 00:57:45;;;;;;;7.77;6.90;;;;;;;16.18;100.00;98969.59;5124822;27;20190;-76
2023/06/17 01:00:16;;;;;;;8.47;7.20;;;;;;;16.26;100.00;98969.75;5127962;27;20221;-76
2023/06/17 01:02:46;;;;;;;8.33;6.83;;;;;;;16.24;100.00;98972.56;5132082;27;20194;-76
2023/06/17 01:05:17;;;;;;;8.47;6.73;;;;;;;16.45;100.00;98976.94;5048827;28;20201;-76
2023/06/17 01:08:05;;;;;;;8.60;6.77;;;;;;;16.51;100.00;98977.22;5043762;28;20197;-76
2023/06/17 01:10:40;;;;;;;9.57;7.17;;;;;;;16.54;100.00;98976.94;5041890;28;20221;-76
2023/06/17 01:13:12;;;;;;;8.27;7.33;;;;;;;16.34;100.00;98971.72;5048880;28;20672;-77
2023/06/17 01:15:41;;;;;;;10.50;7.00;;;;;;;16.27;100.00;98969.59;4985867;28;20596;-76
2023/06/17 01:18:17;;;;;;;9.80;7.07;;;;;;;15.97;100.00;98977.69;4983356;28;20222;-76
2023/06/17 01:20:48;;;;;;;8.90;7.13;;;;;;;15.86;100.00;98969.81;4989878;28;20278;-76
2023/06/17 01:23:18;;;;;;;8.57;7.67;;;;;;;15.83;100.00;98967.41;4990223;28;20246;-77
2023/06/17 01:25:49;;;;;;;8.87;7.10;;;;;;;15.91;100.00;98968.38;4986266;28;20270;-76
2023/06/17 01:28:19;;;;;;;8.23;7.30;;;;;;;15.94;100.00;98960.13;4987579;28;20195;-76
2023/06/17 01:30:48;;;;;;;8.07;6.90;;;;;;;15.94;100.00;98969.97;5038196;28;20331;-76
2023/06/17 01:33:17;;;;;;;8.77;7.17;;;;;;;15.78;100.00;98959.78;5061443;27;20277;-77
2023/06/17 01:35:53;;;;;;;7.90;7.07;;;;;;;15.73;100.00;98967.38;5123757;27;20194;-76
2023/06/17 01:38:26;;;;;;;9.63;7.83;;;;;;;15.66;100.00;98967.06;5127913;27;20276;-76
2023/06/17 01:41:02;;;;;;;13.13;7.40;;;;;;;15.81;100.00;98977.38;5123430;27;20194;-76
2023/06/17 01:43:33;;;;;;;11.07;7.03;;;;;;;15.82;100.00;98968.38;5129587;27;20185;-76
2023/06/17 01:46:02;;;;;;;9.83;7.70;;;;;;;15.89;100.00;98966.84;5128162;27;20216;-76
2023/06/17 01:48:31;;;;;;;7.93;7.13;;;;;;;15.89;100.00;98970.38;5127137;27;20198;-76
2023/06/17 01:51:00;;;;;;;8.67;7.23;;;;;;;15.76;100.00;98967.09;5116017;27;20721;-76
2023/06/17 01:53:28;;;;;;;8.03;7.23;;;;;;;15.92;100.00;98972.78;5127511;27;20218;-77
2023/06/17 01:55:58;;;;;;;11.83;7.67;;;;;;;15.96;100.00;98968.00;5118976;27;20667;-76
2023/06/17 01:58:28;;;;;;;10.20;6.97;;;;;;;15.82;100.00;98974.56;5125785;27;20182;-77
2023/06/17 02:00:56;;;;;;;8.40;7.07;;;;;;;15.75;100.00;98973.44;5124160;27;20201;-76
2023/06/17 02:03:24;;;;;;;9.53;7.43;;;;;;;15.77;100.00;98970.63;5126615;27;20194;-76
2023/06/17 02:05:53;;;;;;;10.47;8.03;;;;;;;15.69;100.00;98965.94;5118004;27;20198;-76
2023/06/17 02:08:23;;;;;;;8.17;7.37;;;;;;;15.48;100.00;98968.66;5125314;27;20699;-77
2023/06/17 02:10:52;;;;;;;9.27;7.73;;;;;;;15.61;100.00;98971.94;5119557;27;20214;-76
2023/06/17 02:13:23;;;;;;;8.63;7.60;;;;;;;15.57;100.00;98969.66;5122543;27;20240;-77
2023/06/17 02:15:52;;;;;;;10.13;7.73;;;;;;;15.44;100.00;98969.88;5127151;27;20195;-76
2023/06/17 02:18:22;;;;;;;8.07;6.90;;;;;;;15.60;100.00;98974.72;5127022;27;20307;-76
2023/06/17 02:20:50;;;;;;;8.17;7.23;;;;;;;15.62;100.00;98970.97;5112672;27;20532;-76
2023/06/17 02:23:18;;;;;;;8.27;7.33;;;;;;;15.45;100.00;98961.75;5124770;27;20193;-76
2023/06/17 02:25:47;;;;;;;7.73;6.87;;;;;;;15.14;100.00;98973.38;5124340;27;20194;-77
2023/06/17 02:28:15;;;;;;;10.87;8.00;;;;;;;15.13;100.00;98963.69;5121280;27;20198;-76
2023/06/17 02:30:45;;;;;;;11.43;8.27;;;;;;;15.18;100.00;98959.66;5120144;27;20214;-76
2023/06/17 02:33:17;;;;;;;8.30;7.50;;;;;;;15.36;100.00;98965.22;5129488;27;20198;-77
2023/06/17 02:35:46;;;;;;;11.03;8.13;;;;;;;15.22;100.00;98957.56;5121841;27;20205;-76
2023/06/17 02:38:15;;;;;;;9.43;7.73;;;;;;;15.31;100.00;98959.44;5126578;28;20213;-76
2023/06/17 02:40:43;;;;;;;8.40;7.37;;;;;;;15.08;100.00;98955.25;5126206;28;20190;-76
2023/06/17 02:43:12;;;;;;;8.57;7.67;;;;;;;15.22;100.00;98956.72;5125118;28;20198;-76
2023/06/17 02:45:40;;;;;;;13.10;8.07;;;;;;;15.33;100.00;98956.63;5127993;27;20280;-76
2023/06/17 02:48:11;;;;;;;9.47;7.97;;;;;;;15.16;100.00;98953.59;5087511;28;20199;-76
2023/06/17 02:50:40;;;;;;;9.30;8.00;;;;;;;15.15;100.00;98946.59;5090897;28;20216;-76
2023/06/17 02:53:10;;;;;;;9.47;7.30;;;;;;;15.24;100.00;98952.91;5028915;28;20207;-77
2023/06/17 02:55:38;;;;;;;8.57;7.67;;;;;;;15.12;100.00;98962.00;5029027;28;20189;-76
2023/06/17 02:58:07;;;;;;;8.83;7.30;;;;;;;14.94;100.00;98955.56;5028710;28;20205;-76
2023/06/17 03:00:36;;;;;;;8.87;7.90;;;;;;;14.78;100.00;98956.03;5028237;28;20281;-76
2023/06/17 03:03:04;;;;;;;10.10;7.77;;;;;;;14.73;100.00;98951.06;5028854;28;20276;-76
2023/06/17 03:05:35;;;;;;;8.77;7.67;;;;;;;14.61;100.00;98957.44;5030230;28;20203;-76
2023/06/17 03:08:04;;;;;;;13.17;8.33;;;;;;;14.33;100.00;98951.72;5047716;28;20197;-77
2023/06/17 03:10:34;;;;;;;9.57;7.97;;;;;;;14.48;100.00;98957.63;5058334;27;20258;-76
2023/06/17 03:13:03;;;;;;;11.63;8.33;;;;;;;14.62;100.00;98947.63;5134300;27;20186;-76
2023/06/17 03:15:32;;;;;;;10.47;8.40;;;;;;;14.28;100.00;98961.91;5129270;27;20194;-76
2023/06/17 03:18:00;;;;;;;9.77;7.90;;;;;;;14.20;100.00;98958.19;5127221;27;20270;-76
2023/06/17 03:20:30;;;;;;;10.73;8.00;;;;;;;14.37;100.00;98956.78;5125120;27;20195;-76
2023/06/17 03:23:02;;;;;;;10.23;8.20;;;;;;;14.38;100.00;98953.13;5131217;27;20710;-76
2023/06/17 03:25:31;;;;;;;10.03;8.70;;;;;;;14.20;100.00;98956.38;5133291;27;20251;-76
2023/06/17 03:28:02;;;;;;;9.13;8.23;;;;;;;14.14;100.00;98961.34;5127805;27;20193;-76
2023/06/17 03:30:33;;;;;;;11.60;9.30;;;;;;;13.98;100.00;98957.25;5129666;27;20217;-76
2023/06/17 03:33:04;;;;;;;12.47;8.97;;;;;;;13.93;100.00;98956.81;5127773;27;20198;-76
2023/06/17 03:35:33;;;;;;;9.80;8.80;;;;;;;13.96;100.00;98956.53;5128758;27;20182;-76
2023/06/17 03:38:05;;;;;;;11.53;9.40;;;;;;;14.24;100.00;98963.13;5125895;27;20226;-76
2023/06/17 03:40:34;;;;;;;15.37;9.80;;;;;;;14.13;100.00;98957.84;5124687;27;20229;-76
2023/06/17 03:43:02;;;;;;;11.13;9.07;;;;;;;14.17;100.00;98956.59;5128665;27;20204;-76
2023/06/17 03:45:35;;;;;;;11.13;9.10;;;;;;;14.31;100.00;98951.00;5125074;27;20645;-76
2023/06/17 03:48:04;;;;;;;11.33;8.97;;;;;;;14.44;100.00;98956.16;5122589;27;20218;-76
2023/06/17 03:50:33;;;;;;;12.07;9.00;;;;;;;14.55;100.00;98949.94;5089275;27;20202;-76
2023/06/17 03:53:04;;;;;;;10.60;9.50;;;;;;;14.57;100.00;98948.88;5126721;27;20232;-76
2023/06/17 03:55:34;;;;;;;9.90;8.50;;;;;;;14.60;100.00;98947.75;5129934;27;20187;-76
2023/06/17 03:58:03;;;;;;;10.33;9.27;;;;;;;14.67;100.00;98951.63;5126398;27;20206;-76
2023/06/17 04:00:32;;;;;;;12.80;9.07;;;;;;;14.70;100.00;98953.16;5123244;27;20239;-76
2023/06/17 04:03:00;;;;;;;12.97;10.20;;;;;;;14.71;100.00;98952.19;5126652;27;20195;-76
2023/06/17 04:05:32;;;;;;;12.20;9.50;;;;;;;14.76;100.00;98949.97;5123033;27;20221;-76
2023/06/17 04:08:02;;;;;;;11.23;9.67;;;;;;;14.63;100.00;98952.81;5127697;27;20660;-76
2023/06/17 04:10:32;;;;;;;12.53;9.80;;;;;;;14.36;100.00;98945.28;5129536;27;20202;-76
2023/06/17 04:13:01;;;;;;;11.13;8.93;;;;;;;14.20;100.00;98940.38;5121812;27;20222;-76
2023/06/17 04:15:29;;;;;;;10.93;9.33;;;;;;;14.20;100.00;98950.19;5132012;27;20235;-76
2023/06/17 04:17:58;;;;;;;9.80;8.77;;;;;;;14.30;100.00;98940.47;5127484;27;20198;-76
2023/06/17 04:20:29;;;;;;;11.57;9.17;;;;;;;14.07;100.00;98941.50;5128658;27;20194;-77
2023/06/17 04:22:57;;;;;;;10.47;9.07;;;;;;;14.17;100.00;98942.44;5132073;27;20232;-76
2023/06/17 04:25:27;;;;;;;9.97;8.33;;;;;;;14.26;100.00;98947.84;5125960;27;20272;-76
2023/06/17 04:27:58;;;;;;;11.77;8.83;;;;;;;14.32;100.00;98943.84;5129252;27;20187;-76
2023/06/17 04:30:28;;;;;;;11.10;8.53;;;;;;;14.39;100.00;98945.03;5111054;27;20234;-76
2023/06/17 04:32:59;;;;;;;10.33;8.87;;;;;;;14.47;100.00;98944.41;5118323;27;20225;-76
2023/06/17 04:35:29;;;;;;;11.63;9.73;;;;;;;14.53;100.00;98950.09;5126207;27;20198;-77
2023/06/17 04:37:58;;;;;;;10.40;9.07;;;;;;;14.71;100.00;98952.19;5118134;27;20278;-76
2023/06/17 04:40:27;;;;;;;10.20;9.10;;;;;;;14.83;100.00;98943.16;5126715;27;20224;-76
2023/06/17 04:42:57;;;;;;;10.30;9.20;;;;;;;15.00;100.00;98939.03;5126715;27;20194;-76
2023/06/17 04:45:27;;;;;;;14.83;8.93;;;;;;;14.99;100.00;98934.69;5132145;27;20219;-77
2023/06/17 04:47:56;;;;;;;10.33;9.23;;;;;;;14.86;100.00;98941.09;5132695;27;20194;-76
2023/06/17 04:50:24;;;;;;;11.23;9.27;;;;;;;15.04;100.00;98941.31;5120488;27;20204;-77
2023/06/17 04:52:53;;;;;;;13.57;10.07;;;;;;;15.13;100.00;98945.84;5092631;27;20228;-76
2023/06/17 04:55:21;;;;;;;12.23;10.13;;;;;;;15.14;100.00;98946.69;5135359;27;20197;-76
2023/06/17 04:57:50;;;;;;;11.97;9.50;;;;;;;15.30;100.00;98939.06;5123050;27;20223;-76
2023/06/17 05:00:21;;;;;;;11.30;9.40;;;;;;;15.53;100.00;98941.53;5125558;27;20204;-76
2023/06/17 05:02:50;;;;;;;11.33;9.97;;;;;;;15.53;100.00;98947.72;5125267;27;20194;-76
2023/06/17 05:05:18;;;;;;;13.10;8.97;;;;;;;15.64;100.00;98952.16;5127775;27;20200;-76
2023/06/17 05:07:50;;;;;;;12.67;9.77;;;;;;;15.71;100.00;98955.97;5123743;27;20190;-76
2023/06/17 05:10:19;;;;;;;11.17;9.97;;;;;;;15.70;100.00;98947.13;5128491;27;20720;-76
2023/06/17 05:12:48;;;;;;;11.23;9.73;;;;;;;15.81;100.00;98947.97;5126008;27;20679;-75
2023/06/17 05:15:16;;;;;;;12.57;10.00;;;;;;;15.73;100.00;98948.69;5126663;27;20259;-76
2023/06/17 05:17:47;;;;;;;12.03;10.37;;;;;;;16.00;100.00;98945.34;5116222;27;20198;-75
2023/06/17 05:20:15;;;;;;;12.60;10.33;;;;;;;15.98;100.00;98950.00;5125259;27;20194;-78
2023/06/17 05:22:44;;;;;;;11.40;9.80;;;;;;;16.06;100.00;98952.84;5117445;27;20202;-75
2023/06/17 05:25:13;;;;;;;13.87;10.90;;;;;;;16.14;100.00;98958.34;5121054;27;20206;-75
2023/06/17 05:27:41;;;;;;;14.63;10.20;;;;;;;16.11;100.00;98955.06;5127862;27;20222;-77
2023/06/17 05:30:10;;;;;;;12.80;10.80;;;;;;;16.27;100.00;98948.22;5122563;27;20190;-76
2023/06/17 05:32:39;;;;;;;13.03;11.20;;;;;;;16.28;100.00;98949.91;5120342;27;20210;-76
2023/06/17 05:35:09;;;;;;;11.97;10.70;;;;;;;16.29;100.00;98948.91;5127171;27;20255;-75
2023/06/17 05:37:38;;;;;;;13.37;10.80;;;;;;;16.38;100.00;98951.75;5119509;27;20310;-78
2023/06/17 05:40:08;;;;;;;14.50;10.73;;;;;;;16.44;100.00;98949.34;5124859;27;20194;-78
2023/06/17 05:42:36;;;;;;;14.67;10.43;;;;;;;16.50;100.00;98947.94;5123504;27;20244;-76
2023/06/17 05:45:05;;;;;;;12.87;10.30;;;;;;;16.57;100.00;98944.56;5125718;27;20231;-75
2023/06/17 05:47:33;;;;;;;15.17;11.10;;;;;;;16.71;100.00;98947.84;5128276;27;20204;-75
2023/06/17 05:50:02;;;;;;;12.87;9.87;;;;;;;16.73;100.00;98949.38;5127712;27;20187;-76
2023/06/17 05:52:32;;;;;;;13.27;10.00;;;;;;;16.84;100.00;98953.72;5125132;27;20237;-76
2023/06/17 05:55:00;;;;;;;16.30;10.43;;;;;;;16.70;100.00;98957.69;5126482;27;20260;-77
2023/06/17 05:57:29;;;;;;;14.13;10.00;;;;;;;17.03;100.00;98959.03;5125576;27;20194;-76
2023/06/17 05:59:57;;;;;;;13.07;10.37;;;;;;;17.13;100.00;98953.66;5127523;27;20652;-76
2023/06/17 06:02:25;;;;;;;16.43;10.67;;;;;;;17.04;100.00;98965.25;5123643;27;20186;-78
2023/06/17 06:04:54;;;;;;;12.83;9.33;;;;;;;17.32;100.00;98961.66;5113681;27;20209;-78
2023/06/17 06:07:22;;;;;;;13.80;9.97;;;;;;;17.39;100.00;98960.09;5126008;27;20399;-78
2023/06/17 06:09:53;;;;;;;11.27;8.73;;;;;;;17.57;100.00;98960.16;5133795;27;20222;-75
2023/06/17 06:12:21;;;;;;;14.27;10.37;;;;;;;17.50;100.00;98964.41;5127255;27;20223;-78
2023/06/17 06:14:51;;;;;;;12.43;10.20;;;;;;;17.55;100.00;98966.63;5124078;27;20197;-78
2023/06/17 06:17:19;;;;;;;14.27;10.60;;;;;;;17.68;100.00;98969.84;5123315;27;20200;-76
2023/06/17 06:19:49;;;;;;;12.27;9.87;;;;;;;17.80;100.00;98974.03;5124324;27;20194;-76
2023/06/17 06:22:18;;;;;;;15.03;10.97;;;;;;;17.86;100.00;98975.28;5123034;27;20183;-75
2023/06/17 06:24:47;;;;;;;11.90;10.47;;;;;;;17.88;100.00;98981.34;5130541;27;20676;-76
2023/06/17 06:27:17;;;;;;;12.33;10.57;;;;;;;17.83;100.00;98984.44;5120895;27;20251;-75
2023/06/17 06:29:45;;;;;;;12.63;10.53;;;;;;;18.02;100.00;98979.00;5125078;28;20191;-76
2023/06/17 06:32:14;;;;;;;12.60;9.47;;;;;;;18.20;100.00;98986.22;5126303;27;20212;-76
2023/06/17 06:34:42;;;;;;;12.20;10.77;;;;;;;18.00;100.00;98972.09;5127925;27;20199;-76
2023/06/17 06:37:11;;;;;;;12.67;9.70;;;;;;;18.35;100.00;98982.03;5128127;27;20740;-76
2023/06/17 06:39:39;;;;;;;11.27;9.17;;;;;;;18.57;100.00;98980.75;5074058;28;20202;-76
2023/06/17 06:42:08;;;;;;;10.97;9.07;;;;;;;18.27;100.00;98987.31;5121813;28;20194;-76
2023/06/17 06:44:38;;;;;;;10.27;9.00;;;;;;;18.56;100.00;98981.75;5126417;28;20202;-76
2023/06/17 06:47:07;;;;;;;13.00;9.13;;;;;;;18.79;100.00;98979.44;5124946;28;20191;-76
2023/06/17 06:49:35;;;;;;;10.30;8.47;;;;;;;18.95;100.00;98984.97;5128822;28;20210;-76
2023/06/17 06:52:04;;;;;;;10.83;8.83;;;;;;;19.16;100.00;98989.97;5022290;28;20208;-75
2023/06/17 06:54:33;;;;;;;10.05;8.93;;;;;;;19.31;100.00;98984.91;5027427;28;20706;-76
2023/06/17 06:57:01;;;;;;;11.00;9.20;;;;;;;18.88;100.00;98986.56;5025487;28;20200;-76
2023/06/17 06:59:30;;;;;;;11.13;8.47;;;;;;;19.03;100.00;98986.88;5029935;28;20212;-76
2023/06/17 07:02:00;;;;;;;9.47;7.70;;;;;;;19.23;100.00;98979.47;5026183;28;20226;-76
2023/06/17 07:04:28;;;;;;;11.30;8.17;;;;;;;19.48;100.00;98981.28;5024923;28;20194;-76
2023/06/17 07:06:56;;;;;;;9.73;8.57;;;;;;;19.70;100.00;98977.25;5024819;28;20276;-76
2023/06/17 07:09:25;;;;;;;9.43;7.13;;;;;;;19.93;100.00;98993.66;5034156;28;20199;-76
2023/06/17 07:11:53;;;;;;;8.00;6.70;;;;;;;20.13;100.00;98978.94;5116355;28;20201;-76
2023/06/17 07:14:22;;;;;;;9.67;7.03;;;;;;;19.97;100.00;98986.94;5130040;28;20229;-76
2023/06/17 07:16:50;;;;;;;8.20;6.40;;;;;;;20.20;100.00;98985.34;5129129;28;20208;-76
2023/06/17 07:19:19;;;;;;;7.87;6.50;;;;;;;20.22;100.00;98983.31;5128723;28;20186;-76
2023/06/17 07:21:49;;;;;;;12.35;6.55;;;;;;;20.57;100.00;98981.44;5126884;28;20187;-76
2023/06/17 07:24:17;;;;;;;8.48;6.13;;;;;;;20.70;100.00;98972.84;5123472;28;20243;-77
2023/06/17 07:26:47;;;;;;;8.68;7.30;;;;;;;20.37;100.00;98983.53;5127236;28;20195;-76
2023/06/17 07:29:15;;;;;;;9.02;7.05;;;;;;;20.36;100.00;98986.38;5122778;28;20194;-76
2023/06/17 07:31:44;;;;;;;7.25;6.53;;;;;;;20.57;100.00;98981.44;5121094;28;20206;-76
2023/06/17 07:34:12;;;;;;;8.07;5.68;;;;;;;20.83;100.00;98978.56;5126166;27;20313;-77
2023/06/17 07:36:42;;;;;;;8.82;6.60;;;;;;;20.84;99.53;98978.41;5127019;27;20230;-76
2023/06/17 07:39:11;;;;;;;6.20;4.88;;;;;;;21.24;86.42;98975.88;5126329;27;20652;-76
2023/06/17 07:41:39;;;;;;;5.20;4.70;;;;;;;21.63;79.48;98984.06;5127549;27;20201;-76
2023/06/17 07:44:07;;;;;;;6.38;4.80;;;;;;;21.92;78.46;98970.81;5127803;27;20194;-76
2023/06/17 07:46:36;;;;;;;8.60;5.10;;;;;;;21.77;75.50;98977.09;5128436;27;20667;-76
2023/06/17 07:49:04;;;;;;;4.85;4.45;;;;;;;22.07;77.00;98972.78;5128287;27;20213;-77
2023/06/17 07:51:33;;;;;;;5.47;4.97;;;;;;;22.23;70.93;98976.25;5126600;27;20246;-76
2023/06/17 07:54:04;;;;;;;5.88;4.55;;;;;;;22.46;70.42;98970.03;5123574;27;20218;-76
2023/06/17 07:56:33;;;;;;;6.88;4.85;;;;;;;21.94;72.05;98973.34;5132682;27;20187;-76
2023/06/17 07:59:02;;;;;;;5.63;4.88;;;;;;;22.21;71.46;98975.59;5129319;27;20224;-76
2023/06/17 08:01:30;;;;;;;6.90;5.00;;;;;;;21.98;65.91;98975.50;5127855;27;20194;-76
2023/06/17 08:03:58;;;;;;;6.50;4.93;;;;;;;22.33;64.17;98967.94;5135851;27;20198;-77
2023/06/17 08:06:28;;;;;;;5.88;4.68;;;;;;;22.56;59.80;98965.25;5122862;27;20236;-77
2023/06/17 08:08:57;;;;;;;4.80;4.40;;;;;;;22.88;59.35;98964.19;5131789;27;20212;-76
2023/06/17 08:11:30;;;;;;;5.75;4.63;;;;;;;23.08;55.02;98967.25;5124068;27;20201;-77
2023/06/17 08:13:58;;;;;;;5.05;4.20;;;;;;;23.10;55.41;98965.19;5132803;27;20253;-76
2023/06/17 08:16:27;;;;;;;4.07;3.67;;;;;;;23.14;54.03;98975.44;5125368;27;20229;-77
2023/06/17 08:18:56;;;;;;;5.75;4.25;;;;;;;23.18;53.14;98962.41;5116867;27;20198;-77
2023/06/17 08:21:24;;;;;;;5.80;4.40;;;;;;;23.20;51.27;98965.75;5129967;27;20198;-77
2023/06/17 08:23:52;;;;;;;4.97;4.35;;;;;;;23.13;51.14;98952.13;5131053;27;20218;-77
2023/06/17 08:26:21;;;;;;;5.90;4.68;;;;;;;23.05;50.64;98952.22;5128181;27;20679;-77
2023/06/17 08:28:51;;;;;;;7.05;4.15;;;;;;;23.29;50.75;98942.19;5127619;27;20201;-77
2023/06/17 08:31:22;;;;;;;6.07;4.03;;;;;;;23.17;51.29;98936.41;5130978;27;20186;-77
2023/06/17 08:33:51;;;;;;;6.95;4.30;;;;;;;23.40;50.37;98939.88;5127374;27;20214;-77
2023/06/17 08:36:19;;;;;;;5.35;4.65;;;;;;;23.82;47.69;98946.50;5125858;27;20187;-77
2023/06/17 08:38:47;;;;;;;6.47;4.47;;;;;;;23.37;48.01;98942.13;5132437;27;20215;-77
2023/06/17 08:41:15;;;;;;;6.40;4.53;;;;;;;23.49;48.18;98937.09;5127725;27;20274;-77
2023/06/17 08:43:47;;;;;;;7.00;4.40;;;;;;;23.91;49.94;98933.72;5132509;27;20357;-77
2023/06/17 08:46:18;;;;;;;5.60;4.43;;;;;;;23.92;47.99;98936.22;5124839;27;20269;-77
2023/06/17 08:48:48;;;;;;;5.93;4.43;;;;;;;23.64;48.58;98937.94;5128157;27;20190;-77
2023/06/17 08:51:17;;;;;;;5.65;4.45;;;;;;;24.07;48.93;98940.78;5131250;27;20196;-77
2023/06/17 08:53:46;;;;;;;6.72;4.10;;;;;;;23.85;48.87;98945.31;5125676;27;20190;-77
2023/06/17 08:56:14;;;;;;;8.30;4.45;;;;;;;24.24;48.87;98939.53;5130337;27;20229;-76
2023/06/17 08:58:44;;;;;;;5.10;4.45;;;;;;;23.91;46.27;98936.41;5127559;27;20216;-77
2023/06/17 09:01:13;;;;;;;4.85;4.13;;;;;;;24.18;49.00;98926.75;5127624;27;20202;-77
2023/06/17 09:03:44;;;;;;;4.40;4.00;;;;;;;24.24;47.54;98937.66;5127743;27;20270;-76
2023/06/17 09:06:20;;;;;;;5.30;4.05;;;;;;;24.48;45.31;98922.94;5133721;27;20303;-77
2023/06/17 09:08:48;;;;;;;4.70;4.30;;;;;;;24.54;45.44;98913.22;5127967;27;20194;-77
2023/06/17 09:11:18;;;;;;;11.32;4.53;;;;;;;24.89;45.22;98914.13;5129127;27;20212;-77
2023/06/17 09:13:50;;;;;;;8.13;4.80;;;;;;;24.73;44.76;98914.44;5121991;27;20197;-77
2023/06/17 09:16:18;;;;;;;7.50;4.50;;;;;;;24.94;43.89;98924.41;5130798;27;20191;-76
2023/06/17 09:18:55;;;;;;;6.68;4.50;;;;;;;25.25;41.96;98910.50;5127922;27;20209;-77
2023/06/17 09:21:28;;;;;;;5.03;4.13;;;;;;;24.85;42.80;98910.16;5121554;27;20190;-78
2023/06/17 09:24:00;;;;;;;7.10;4.40;;;;;;;25.22;41.50;98908.19;5127358;27;20221;-77
2023/06/17 09:26:32;;;;;;;5.47;4.13;;;;;;;25.56;39.63;98919.00;5133529;27;20229;-77
2023/06/17 09:29:02;;;;;;;5.47;4.25;;;;;;;25.64;39.52;98899.88;5131239;27;20198;-77
2023/06/17 09:31:46;;;;;;;6.13;4.18;;;;;;;25.79;38.71;98909.78;5126274;27;20198;-77
2023/06/17 09:34:17;;;;;;;7.10;4.10;;;;;;;25.25;40.19;98902.34;5127004;27;20337;-77
2023/06/17 09:36:47;;;;;;;4.82;3.67;;;;;;;25.84;38.07;98902.69;5127850;27;20645;-77
2023/06/17 09:39:16;;;;;;;5.35;3.88;;;;;;;25.74;37.79;98899.53;5121504;27;20209;-77
2023/06/17 09:41:45;;;;;;;4.35;3.95;;;;;;;26.07;37.34;98904.25;5126915;27;20205;-77
2023/06/17 09:44:15;;;;;;;4.65;4.15;;;;;;;26.02;36.60;98904.03;5127004;27;20193;-77
2023/06/17 09:46:47;;;;;;;5.28;4.10;;;;;;;26.19;36.27;98900.75;5128817;27;20202;-76
2023/06/17 09:49:23;;;;;;;4.68;3.85;;;;;;;26.67;36.56;98891.66;5123529;27;20273;-77
2023/06/17 09:51:53;;;;;;;4.50;4.10;;;;;;;26.79;36.32;98888.09;5123385;27;20212;-77
2023/06/17 09:54:22;;;;;;;4.75;3.45;;;;;;;26.78;36.55;98877.44;5123283;27;20200;-77
2023/06/17 09:56:52;;;;;;;8.77;4.15;;;;;;;27.02;36.10;98890.44;5122239;27;20202;-77
2023/06/17 09:59:24;;;;;;;6.60;3.65;;;;;;;26.94;35.50;98874.31;5128461;27;20190;-77
2023/06/17 10:01:52;;;;;;;6.40;4.03;;;;;;;26.35;38.58;98885.13;5118998;27;20205;-77
2023/06/17 10:04:22;;;;;;;4.43;4.03;;;;;;;26.87;35.91;98876.19;5126169;27;20205;-77
2023/06/17 10:06:52;;;;;;;4.32;3.88;;;;;;;27.15;34.24;98878.69;5122288;27;20205;-77
2023/06/17 10:09:21;;;;;;;8.02;3.97;;;;;;;27.31;35.52;98874.69;5127146;27;20197;-77
2023/06/17 10:11:54;;;;;;;6.22;3.70;;;;;;;27.54;33.43;98877.78;5129142;27;20194;-77
2023/06/17 10:14:27;;;;;;;4.72;4.00;;;;;;;27.77;34.48;98869.13;5108079;27;20186;-77
2023/06/17 10:16:56;;;;;;;7.55;4.20;;;;;;;27.52;34.30;98868.16;5125451;27;20211;-77
2023/06/17 10:19:28;;;;;;;4.32;3.70;;;;;;;27.52;35.02;98868.16;5130585;27;20194;-77
2023/06/17 10:22:00;;;;;;;5.30;4.05;;;;;;;27.38;33.64;98867.34;5129491;27;20193;-78
2023/06/17 10:24:29;;;;;;;4.80;4.40;;;;;;;25.90;34.22;98863.06;5127307;27;20195;-76
2023/06/17 10:27:04;;;;;;;6.63;3.95;;;;;;;25.90;35.23;98865.78;5127130;27;20657;-77
2023/06/17 10:29:33;;;;;;;4.55;4.00;;;;;;;26.80;34.62;98865.31;5127259;27;20197;-78
2023/06/17 10:32:17;;;;;;;4.63;3.78;;;;;;;27.06;34.48;98858.22;5125088;27;20198;-78
2023/06/17 10:35:13;;;;;;;4.65;4.25;;;;;;;27.20;33.65;98851.69;5130379;27;20201;-77
2023/06/17 10:37:43;;;;;;;4.95;4.10;;;;;;;26.58;33.15;98858.41;5126473;27;20309;-78
2023/06/17 10:40:24;;;;;;;6.50;4.20;;;;;;;27.36;33.74;98853.97;5127298;27;20193;-77
2023/06/17 10:43:16;;;;;;;5.20;3.97;;;;;;;27.76;33.60;98864.72;5090392;28;20202;-77
2023/06/17 10:45:53;;;;;;;4.43;4.03;;;;;;;28.22;32.67;98866.38;5086924;28;20663;-77
2023/06/17 10:48:24;;;;;;;7.53;4.40;;;;;;;28.52;31.22;98845.66;5086857;28;20200;-78
2023/06/17 10:50:59;;;;;;;5.40;3.90;;;;;;;28.42;30.51;98855.38;5087276;28;20239;-77
2023/06/17 10:53:30;;;;;;;5.13;3.70;;;;;;;28.80;29.03;98850.66;5084946;28;20203;-78
2023/06/17 10:56:03;;;;;;;4.40;4.00;;;;;;;28.02;30.54;98854.78;5081857;28;20215;-78
2023/06/17 10:58:34;;;;;;;4.22;3.72;;;;;;;26.56;31.41;98857.78;5089034;28;20199;-77
2023/06/17 11:01:03;;;;;;;5.43;3.88;;;;;;;27.10;31.45;98852.13;5099498;28;20205;-77
2023/06/17 11:03:32;;;;;;;5.45;3.75;;;;;;;27.74;30.49;98853.22;5122795;27;20199;-78
2023/06/17 11:06:03;;;;;;;4.03;3.63;;;;;;;28.33;29.88;98845.81;5121914;27;20195;-77
2023/06/17 11:08:33;;;;;;;4.82;3.72;;;;;;;29.04;30.05;98850.88;5129799;27;20195;-78
2023/06/17 11:11:13;;;;;;;3.97;3.47;;;;;;;29.70;29.59;98852.91;5093319;27;20205;-77
2023/06/17 11:13:43;;;;;;;3.88;3.53;;;;;;;29.96;29.51;98853.63;5130618;27;20209;-78
2023/06/17 11:16:11;;;;;;;7.25;4.20;;;;;;;30.19;29.87;98856.47;5127393;27;20206;-77
2023/06/17 11:18:44;;;;;;;4.95;4.15;;;;;;;30.27;28.58;98842.50;5132791;27;20267;-77
2023/06/17 11:21:15;;;;;;;6.05;4.30;;;;;;;29.75;28.73;98847.59;5133082;27;20186;-76
2023/06/17 11:23:44;;;;;;;5.07;3.70;;;;;;;29.83;29.72;98850.03;5132234;27;20222;-77
2023/06/17 11:26:13;;;;;;;6.03;3.83;;;;;;;29.29;29.03;98848.94;5126983;27;20194;-78
2023/06/17 11:28:43;;;;;;;4.40;4.00;;;;;;;29.10;29.92;98838.25;5133274;27;20190;-77
2023/06/17 11:31:12;;;;;;;4.28;3.97;;;;;;;28.60;29.55;98836.38;5126649;27;20235;-78
2023/06/17 11:33:41;;;;;;;4.80;3.63;;;;;;;28.72;29.12;98844.66;5129092;27;20229;-77
2023/06/17 11:36:13;;;;;;;5.30;3.97;;;;;;;29.64;28.78;98830.09;5125826;27;20299;-78